Rush — ZGAV9 — position and weather

sailwx.info

Track history (hours):
 
Tides and Currents Weather Stations Pressure Air Temp Water Temp Dewpoint Dewpoint Depression Visibility Wind Speed Wind Dir Waves Ship Positions

Rush

Last reported at 2015-Jul-27 18:03 UTC. Time now 2015-Jul-30 08:15 UTC.
Position N 43°43' E 007°25'.

Length 49 m; draft 1.8 m.

Type: High speed craft. MMSI: 319035300.

Date/timePositionNaut miles runAvg speedWind from/ knotsBaromVisibWave heightAir tempDewpointWater temp
2015-Jul-27 18:03N 43°43' E 007°25'0 0.0
2015-Jul-27 17:33N 43°43' E 007°25'0 0.0
2015-Jul-27 16:33N 43°43' E 007°25'0 0.0
2015-Jul-27 15:33N 43°43' E 007°25'0 0.0
2015-Jul-27 14:33N 43°43' E 007°25'  
2015-Jul-24 18:29N 43°44' E 007°26'0 0.0
2015-Jul-24 15:31N 43°44' E 007°26'3 0.6
2015-Jul-24 10:20N 43°44' E 007°30'2226.1
2015-Jul-24 09:30N 43°50' E 007°59'3625.7
2015-Jul-24 08:06N 44°07' E 008°43'1425.3
2015-Jul-24 07:34N 44°13' E 009°00'1010.0
2015-Jul-24 06:31N 44°18' E 009°13'0 0.0
2015-Jul-24 04:10N 44°18' E 009°13'0 0.0
2015-Jul-24 03:28N 44°18' E 009°13'0 0.0
2015-Jul-24 02:28N 44°18' E 009°13'0 0.0
2015-Jul-24 01:28N 44°18' E 009°13'0 0.0
2015-Jul-24 00:31N 44°18' E 009°13'0 0.0
2015-Jul-23 22:28N 44°18' E 009°13'0 0.0
2015-Jul-23 21:31N 44°18' E 009°13'0 0.0
2015-Jul-23 20:31N 44°18' E 009°13'0 0.0
2015-Jul-23 19:19N 44°18' E 009°13'0 0.0
2015-Jul-23 18:31N 44°18' E 009°13'0 0.0
2015-Jul-23 17:32N 44°18' E 009°13'0 0.4
2015-Jul-23 16:33N 44°18' E 009°13'4 3.6
2015-Jul-23 15:32N 44°20' E 009°09'0 0.0
2015-Jul-23 14:33N 44°20' E 009°09'0 0.0
2015-Jul-23 13:32N 44°20' E 009°09'3 2.5
2015-Jul-23 12:12N 44°19' E 009°13'0 0.0
2015-Jul-23 10:26N 44°19' E 009°13'0 0.0
2015-Jul-23 09:18N 44°19' E 009°13'0 0.3
2015-Jul-23 08:33N 44°19' E 009°13'2019.9
2015-Jul-23 07:34N 44°02' E 009°29'2524.9
2015-Jul-23 06:34N 43°42' E 009°49'2524.6
2015-Jul-23 05:34N 43°21' E 010°06'3024.3
2015-Jul-23 04:19N 42°52' E 010°20'4 1.9
2015-Jul-23 02:28N 42°49' E 010°20'0 0.0
2015-Jul-23 00:28N 42°49' E 010°20'0 0.0
2015-Jul-22 22:04N 42°49' E 010°20'0 0.0
2015-Jul-22 20:22N 42°49' E 010°20'0 0.0
2015-Jul-22 19:28N 42°49' E 010°20'0 0.0
2015-Jul-22 18:23N 42°49' E 010°20'3 3.6
2015-Jul-22 17:33N 42°49' E 010°16'0 0.1
2015-Jul-22 13:30N 42°49' E 010°16'3 1.2
2015-Jul-22 11:22N 42°49' E 010°20'0 0.0
2015-Jul-22 09:33N 42°49' E 010°20'11 0.5
2015-Jul-21 09:26N 42°40' E 010°28'1820.2
2015-Jul-21 08:33N 42°33' E 010°50'35 0.8
2015-Jul-19 15:18N 42°02' E 010°27'1519.6
2015-Jul-19 14:33N 41°54' E 010°11'2219.7
2015-Jul-19 13:27N 41°42' E 009°47'1819.6
2015-Jul-19 12:33N 41°32' E 009°27'  
Track history (hours):
 
Tides and Currents Weather Stations Pressure Air Temp Water Temp Dewpoint Dewpoint Depression Visibility Wind Speed Wind Dir Waves Ship Positions

Rush

Last reported at 2015-Jul-27 18:03 UTC. Time now 2015-Jul-30 08:15 UTC.
Position N 43°43' E 007°25'.

Length 49 m; draft 1.8 m.

Type: High speed craft. MMSI: 319035300.

Date/timePositionNaut miles runAvg speedWind from/ knotsBaromVisibWave heightAir tempDewpointWater temp
2015-Jul-27 18:03N 43°43' E 007°25'0 0.0
2015-Jul-27 17:33N 43°43' E 007°25'0 0.0
2015-Jul-27 16:33N 43°43' E 007°25'0 0.0
2015-Jul-27 15:33N 43°43' E 007°25'0 0.0
2015-Jul-27 14:33N 43°43' E 007°25'  
2015-Jul-24 18:29N 43°44' E 007°26'0 0.0
2015-Jul-24 15:31N 43°44' E 007°26'3 0.6
2015-Jul-24 10:20N 43°44' E 007°30'2226.1
2015-Jul-24 09:30N 43°50' E 007°59'3625.7
2015-Jul-24 08:06N 44°07' E 008°43'1425.3
2015-Jul-24 07:34N 44°13' E 009°00'1010.0
2015-Jul-24 06:31N 44°18' E 009°13'0 0.0
2015-Jul-24 04:10N 44°18' E 009°13'0 0.0
2015-Jul-24 03:28N 44°18' E 009°13'0 0.0
2015-Jul-24 02:28N 44°18' E 009°13'0 0.0
2015-Jul-24 01:28N 44°18' E 009°13'0 0.0
2015-Jul-24 00:31N 44°18' E 009°13'0 0.0
2015-Jul-23 22:28N 44°18' E 009°13'0 0.0
2015-Jul-23 21:31N 44°18' E 009°13'0 0.0
2015-Jul-23 20:31N 44°18' E 009°13'0 0.0
2015-Jul-23 19:19N 44°18' E 009°13'0 0.0
2015-Jul-23 18:31N 44°18' E 009°13'0 0.0
2015-Jul-23 17:32N 44°18' E 009°13'0 0.4
2015-Jul-23 16:33N 44°18' E 009°13'4 3.6
2015-Jul-23 15:32N 44°20' E 009°09'0 0.0
2015-Jul-23 14:33N 44°20' E 009°09'0 0.0
2015-Jul-23 13:32N 44°20' E 009°09'3 2.5
2015-Jul-23 12:12N 44°19' E 009°13'0 0.0
2015-Jul-23 10:26N 44°19' E 009°13'0 0.0
2015-Jul-23 09:18N 44°19' E 009°13'0 0.3
2015-Jul-23 08:33N 44°19' E 009°13'2019.9
2015-Jul-23 07:34N 44°02' E 009°29'2524.9
2015-Jul-23 06:34N 43°42' E 009°49'2524.6
2015-Jul-23 05:34N 43°21' E 010°06'3024.3
2015-Jul-23 04:19N 42°52' E 010°20'4 1.9
2015-Jul-23 02:28N 42°49' E 010°20'0 0.0
2015-Jul-23 00:28N 42°49' E 010°20'0 0.0
2015-Jul-22 22:04N 42°49' E 010°20'0 0.0
2015-Jul-22 20:22N 42°49' E 010°20'0 0.0
2015-Jul-22 19:28N 42°49' E 010°20'0 0.0
2015-Jul-22 18:23N 42°49' E 010°20'3 3.6
2015-Jul-22 17:33N 42°49' E 010°16'0 0.1
2015-Jul-22 13:30N 42°49' E 010°16'3 1.2
2015-Jul-22 11:22N 42°49' E 010°20'0 0.0
2015-Jul-22 09:33N 42°49' E 010°20'11 0.5
2015-Jul-21 09:26N 42°40' E 010°28'1820.2
2015-Jul-21 08:33N 42°33' E 010°50'35 0.8
2015-Jul-19 15:18N 42°02' E 010°27'1519.6
2015-Jul-19 14:33N 41°54' E 010°11'2219.7
2015-Jul-19 13:27N 41°42' E 009°47'1819.6
2015-Jul-19 12:33N 41°32' E 009°27'  

Dump ship's entire track history